createdAt,value
2023-04-22T00:01:28.911Z,69.70
2023-04-22T00:03:56.703Z,69.70
2023-04-22T00:06:24.393Z,69.80
2023-04-22T00:08:51.635Z,69.80
2023-04-22T00:11:18.790Z,69.90
2023-04-22T00:13:46.333Z,69.90
2023-04-22T00:16:13.553Z,69.90
2023-04-22T00:18:41.654Z,69.80
2023-04-22T00:21:09.076Z,69.80
2023-04-22T00:23:36.860Z,69.80
2023-04-22T00:26:04.599Z,69.80
2023-04-22T00:28:32.948Z,69.80
2023-04-22T00:31:03.294Z,69.70
2023-04-22T00:33:31.857Z,69.80
2023-04-22T00:35:59.544Z,69.80
2023-04-22T00:38:27.555Z,69.70
2023-04-22T00:40:55.389Z,69.80
2023-04-22T00:43:22.839Z,69.70
2023-04-22T00:45:50.946Z,69.80
2023-04-22T00:48:18.623Z,69.90
2023-04-22T00:50:46.377Z,69.90
2023-04-22T00:53:14.120Z,69.90
2023-04-22T00:55:41.880Z,69.80
2023-04-22T00:58:10.527Z,70.00
2023-04-22T01:00:38.739Z,70.00
2023-04-22T01:03:07.493Z,70.00
2023-04-22T01:05:35.987Z,69.80
2023-04-22T01:08:03.821Z,69.80
2023-04-22T01:10:31.659Z,69.90
2023-04-22T01:12:59.692Z,69.80
2023-04-22T01:15:29.220Z,69.90
2023-04-22T01:17:56.974Z,69.90
2023-04-22T01:20:24.553Z,69.90
2023-04-22T01:22:55.456Z,69.80
2023-04-22T01:25:28.935Z,69.80
2023-04-22T01:27:57.375Z,69.90
2023-04-22T01:30:24.577Z,69.90
2023-04-22T01:32:52.475Z,69.90
2023-04-22T01:35:21.456Z,69.90
2023-04-22T01:37:49.008Z,70.70
2023-04-22T01:40:19.903Z,69.70
2023-04-22T01:42:47.667Z,69.80
2023-04-22T01:45:18.026Z,69.80
2023-04-22T01:47:45.705Z,69.80
2023-04-22T01:50:12.773Z,69.90
2023-04-22T01:52:39.975Z,69.80
2023-04-22T01:55:08.657Z,69.80
2023-04-22T01:57:37.121Z,69.90
2023-04-22T02:00:06.512Z,69.90
2023-04-22T02:02:39.773Z,69.90
2023-04-22T02:05:08.663Z,69.90
2023-04-22T02:07:37.083Z,69.90
2023-04-22T02:10:06.566Z,69.80
2023-04-22T02:12:34.081Z,69.90
2023-04-22T02:15:01.568Z,69.90
2023-04-22T02:17:28.814Z,69.90
2023-04-22T02:19:56.406Z,69.80
2023-04-22T02:22:24.246Z,69.80
2023-04-22T02:24:51.892Z,69.80
2023-04-22T02:27:19.326Z,69.90
2023-04-22T02:29:48.445Z,69.70
2023-04-22T02:32:17.747Z,70.80
2023-04-22T02:34:47.234Z,69.90
2023-04-22T02:37:14.872Z,69.80
2023-04-22T02:39:42.578Z,69.90
2023-04-22T02:42:10.401Z,70.00
2023-04-22T02:44:38.185Z,70.00
2023-04-22T02:47:07.579Z,70.00
2023-04-22T02:49:35.116Z,70.00
2023-04-22T02:52:02.438Z,70.00
2023-04-22T02:54:29.615Z,70.10
2023-04-22T02:56:58.026Z,70.00
2023-04-22T02:59:25.162Z,70.10
2023-04-22T03:01:52.820Z,70.20
2023-04-22T03:04:36.901Z,70.10
2023-04-22T03:07:04.566Z,70.90
2023-04-22T03:09:31.598Z,70.10
2023-04-22T03:11:59.309Z,70.10
2023-04-22T03:14:27.463Z,70.10
2023-04-22T03:16:55.694Z,70.10
2023-04-22T03:19:24.304Z,70.20
2023-04-22T03:21:51.419Z,70.10
2023-04-22T03:24:19.207Z,70.00
2023-04-22T03:26:50.868Z,69.90
2023-04-22T03:29:19.468Z,69.90
2023-04-22T03:31:47.170Z,70.10
2023-04-22T03:34:14.771Z,69.90
2023-04-22T03:36:43.884Z,70.10
2023-04-22T03:39:12.006Z,70.10
2023-04-22T03:41:40.511Z,70.20
2023-04-22T03:44:08.487Z,70.10
2023-04-22T03:46:37.238Z,70.10
2023-04-22T03:49:24.586Z,70.20
2023-04-22T03:51:51.801Z,70.20
2023-04-22T03:54:24.418Z,70.10
2023-04-22T03:56:53.069Z,70.20
2023-04-22T03:59:22.518Z,70.10
2023-04-22T04:01:52.620Z,70.20
2023-04-22T04:04:24.326Z,70.20
2023-04-22T04:06:56.929Z,70.10
2023-04-22T04:09:24.781Z,70.20
2023-04-22T04:11:53.226Z,70.30
2023-04-22T04:14:21.885Z,70.20
2023-04-22T04:16:52.199Z,70.30
2023-04-22T04:19:28.693Z,70.30
2023-04-22T04:21:57.054Z,70.20
2023-04-22T04:24:26.498Z,70.10
2023-04-22T04:27:00.707Z,70.10
2023-04-22T04:29:35.657Z,70.10
2023-04-22T04:32:14.701Z,70.20
2023-04-22T04:34:43.215Z,70.20
2023-04-22T04:37:12.769Z,70.20
2023-04-22T04:40:05.795Z,70.30
2023-04-22T04:42:49.368Z,70.30
2023-04-22T04:45:28.468Z,70.20
2023-04-22T04:48:07.416Z,70.40
2023-04-22T04:50:54.938Z,70.30
2023-04-22T04:53:47.177Z,70.40
2023-04-22T04:56:27.302Z,70.30
2023-04-22T04:59:03.274Z,70.40
2023-04-22T05:02:10.239Z,70.40
2023-04-22T05:04:43.248Z,70.60
2023-04-22T05:07:14.361Z,70.30
2023-04-22T05:09:58.598Z,70.50
2023-04-22T05:12:34.925Z,70.70
2023-04-22T05:15:24.356Z,70.60
2023-04-22T05:18:33.124Z,71.40
2023-04-22T05:21:46.284Z,70.70
2023-04-22T05:24:31.671Z,70.50
2023-04-22T05:27:31.603Z,70.40
2023-04-22T05:30:21.680Z,70.30
2023-04-22T05:33:22.167Z,70.50
2023-04-22T05:36:07.733Z,70.50
2023-04-22T05:41:58.074Z,70.60
2023-04-22T05:44:26.510Z,70.70
2023-04-22T05:47:00.012Z,71.50
2023-04-22T05:49:34.684Z,70.40
2023-04-22T05:52:30.515Z,70.40
2023-04-22T05:55:34.115Z,70.40
2023-04-22T05:58:04.205Z,70.30
2023-04-22T06:05:05.125Z,70.20
2023-04-22T06:09:05.736Z,70.40
2023-04-22T06:12:37.196Z,70.40
2023-04-22T06:15:18.740Z,70.40
2023-04-22T06:17:46.008Z,70.30
2023-04-22T06:20:13.855Z,70.10
2023-04-22T06:22:40.947Z,70.10
2023-04-22T06:25:09.913Z,70.00
2023-04-22T06:27:39.107Z,70.20
2023-04-22T06:30:08.197Z,70.20
2023-04-22T06:32:35.566Z,70.10
2023-04-22T06:35:02.936Z,70.00
2023-04-22T06:37:30.084Z,70.00
2023-04-22T06:39:57.417Z,70.00
2023-04-22T06:42:43.146Z,70.00
2023-04-22T06:45:28.770Z,70.20
2023-04-22T06:48:09.505Z,70.10
2023-04-22T06:50:57.426Z,70.20
2023-04-22T06:53:24.641Z,70.20
2023-04-22T06:55:53.240Z,70.00
2023-04-22T06:58:22.415Z,69.90
2023-04-22T07:00:50.078Z,69.80
2023-04-22T07:03:17.832Z,70.90
2023-04-22T07:05:50.234Z,69.80
2023-04-22T07:08:17.602Z,70.00
2023-04-22T07:10:45.008Z,69.80
2023-04-22T07:13:27.726Z,69.90
2023-04-22T07:15:54.907Z,70.10
2023-04-22T07:18:22.144Z,70.00
2023-04-22T07:20:49.226Z,70.00
2023-04-22T07:23:16.097Z,70.00
2023-04-22T07:25:43.032Z,70.10
2023-04-22T07:31:21.452Z,70.20
2023-04-22T07:33:48.825Z,70.30
2023-04-22T07:36:16.104Z,70.10
2023-04-22T07:38:43.173Z,70.10
2023-04-22T07:41:10.743Z,70.10
2023-04-22T07:43:38.335Z,70.10
2023-04-22T07:46:07.280Z,70.20
2023-04-22T07:48:34.731Z,70.10
2023-04-22T07:51:02.117Z,70.10
2023-04-22T07:53:29.080Z,70.20
2023-04-22T07:55:57.013Z,70.20
2023-04-22T07:58:23.940Z,70.20
2023-04-22T08:00:51.386Z,70.10
2023-04-22T08:03:18.548Z,70.20
2023-04-22T08:05:47.306Z,71.10
2023-04-22T08:08:14.476Z,70.20
2023-04-22T08:10:41.646Z,70.10
2023-04-22T08:13:08.602Z,70.20
2023-04-22T08:15:36.295Z,70.30
2023-04-22T08:18:04.037Z,70.30
2023-04-22T08:20:31.247Z,70.10
2023-04-22T08:23:00.715Z,70.10
2023-04-22T08:25:29.682Z,70.10
2023-04-22T08:27:56.982Z,70.20
2023-04-22T08:30:24.126Z,70.10
2023-04-22T08:32:53.357Z,70.20
2023-04-22T08:35:21.046Z,70.30
2023-04-22T08:37:48.094Z,71.00
2023-04-22T08:40:15.535Z,70.30
2023-04-22T08:42:44.346Z,70.20
2023-04-22T08:45:11.728Z,70.10
2023-04-22T08:47:40.719Z,70.20
2023-04-22T08:50:09.794Z,70.30
2023-04-22T08:52:37.848Z,70.20
2023-04-22T08:55:06.186Z,70.20
2023-04-22T08:57:33.855Z,70.20
2023-04-22T09:00:01.324Z,70.20
2023-04-22T09:02:32.272Z,70.20
2023-04-22T09:05:03.229Z,70.10
2023-04-22T09:07:32.594Z,70.10
2023-04-22T09:09:59.763Z,70.00
2023-04-22T09:12:27.550Z,70.10
2023-04-22T16:34:29.439Z,72.60
2023-04-22T16:36:56.584Z,69.70
2023-04-22T16:39:23.859Z,69.30
2023-04-22T16:41:51.190Z,69.00
2023-04-22T16:44:18.339Z,68.50
2023-04-22T16:46:45.614Z,68.10
2023-04-22T16:49:13.585Z,67.80
2023-04-22T16:51:40.989Z,67.30
2023-04-22T16:54:08.094Z,67.10
2023-04-22T16:56:35.372Z,67.10
2023-04-22T16:59:02.426Z,66.90
2023-04-22T17:01:30.259Z,66.50
2023-04-22T17:03:58.009Z,66.70
2023-04-22T17:06:28.047Z,66.90
2023-04-22T17:08:55.411Z,66.50
2023-04-22T17:11:24.087Z,66.40
2023-04-22T17:13:51.646Z,67.30
2023-04-22T17:16:19.866Z,66.50
2023-04-22T17:18:47.427Z,66.50
2023-04-22T17:21:15.122Z,66.60
2023-04-22T17:23:42.487Z,66.50
2023-04-22T17:26:09.483Z,66.40
2023-04-22T17:28:36.694Z,66.10
2023-04-22T17:31:04.280Z,66.20
2023-04-22T17:33:31.614Z,66.40
2023-04-22T17:35:58.705Z,66.40
2023-04-22T17:38:25.937Z,66.30
2023-04-22T17:40:53.073Z,66.60
2023-04-22T17:43:20.055Z,66.50
2023-04-22T17:45:47.420Z,66.40
2023-04-22T17:48:14.538Z,66.30
2023-04-22T17:50:41.556Z,66.20
2023-04-22T17:53:08.896Z,66.20
2023-04-22T17:55:35.996Z,67.50
2023-04-22T17:58:04.463Z,66.30
2023-04-22T18:00:36.511Z,66.10
2023-04-22T18:03:05.531Z,66.10
2023-04-22T18:05:32.755Z,66.10
2023-04-22T18:08:04.028Z,66.30
2023-04-22T18:10:31.226Z,66.30
2023-04-22T18:12:58.275Z,66.30
2023-04-22T18:15:25.565Z,66.20
2023-04-22T18:17:52.601Z,66.10
2023-04-22T18:20:20.101Z,66.20
2023-04-22T18:22:56.281Z,66.40
2023-04-22T18:25:24.207Z,66.50
2023-04-22T18:27:54.912Z,66.50
2023-04-22T18:30:23.861Z,66.30
2023-04-22T18:32:51.860Z,66.30
2023-04-22T18:35:20.020Z,66.40
2023-04-22T18:37:47.409Z,66.50
2023-04-22T18:40:14.462Z,66.60
2023-04-22T18:42:44.538Z,66.70
2023-04-22T18:45:12.311Z,66.70
2023-04-22T18:47:39.669Z,66.60
2023-04-22T18:50:07.508Z,66.80
2023-04-22T18:52:34.694Z,66.70
2023-04-22T18:55:02.018Z,66.80
2023-04-22T18:57:29.216Z,66.90
2023-04-22T18:59:56.389Z,66.80
2023-04-22T19:02:23.403Z,66.40
2023-04-22T19:04:51.574Z,67.70
2023-04-22T19:07:18.792Z,66.70
2023-04-22T19:09:46.634Z,66.90
2023-04-22T19:12:16.467Z,67.10
2023-04-22T19:14:43.888Z,67.10
2023-04-22T19:17:11.219Z,67.30
2023-04-22T19:19:38.233Z,67.20
2023-04-22T19:22:05.431Z,66.80
2023-04-22T19:24:35.145Z,66.80
2023-04-22T19:27:02.819Z,67.10
2023-04-22T19:29:30.240Z,66.90
2023-04-22T19:31:58.791Z,67.10
2023-04-22T19:34:26.913Z,67.20
2023-04-22T19:36:54.421Z,67.00
2023-04-22T19:39:21.949Z,67.10
2023-04-22T19:41:49.171Z,66.90
2023-04-22T19:44:16.320Z,67.00
2023-04-22T19:46:43.423Z,67.00
2023-04-22T19:49:10.722Z,66.90
2023-04-22T19:51:39.293Z,66.80
2023-04-22T19:54:08.312Z,66.80
2023-04-22T19:56:35.892Z,66.70
2023-04-22T19:59:04.283Z,66.80
2023-04-22T20:01:31.830Z,66.70
2023-04-22T20:03:59.621Z,66.70
2023-04-22T20:06:31.618Z,66.70
2023-04-22T20:08:59.766Z,66.80
2023-04-22T20:11:28.975Z,66.70
2023-04-22T20:13:56.870Z,66.70
2023-04-22T20:16:24.378Z,66.90
2023-04-22T20:18:52.169Z,66.90
2023-04-22T20:21:22.631Z,67.10
2023-04-22T20:23:52.237Z,67.10
2023-04-22T20:26:19.950Z,67.10
2023-04-22T20:28:51.697Z,67.10
2023-04-22T20:31:20.670Z,66.90
2023-04-22T20:33:48.360Z,67.20
2023-04-22T20:36:17.159Z,67.30
2023-04-22T20:38:48.729Z,67.30
2023-04-22T20:41:20.096Z,67.40
2023-04-22T20:43:47.310Z,67.30
2023-04-22T20:46:14.724Z,67.10
2023-04-22T20:48:42.606Z,67.20
2023-04-22T20:51:09.553Z,67.40
2023-04-22T20:53:37.558Z,67.50
2023-04-22T20:56:07.415Z,67.40
2023-04-22T20:58:34.418Z,67.30
2023-04-22T21:01:01.489Z,67.40
2023-04-22T21:03:29.518Z,68.30
2023-04-22T21:05:58.365Z,67.50
2023-04-22T21:08:26.191Z,67.40
2023-04-22T21:10:56.526Z,67.30
2023-04-22T21:13:24.186Z,67.50
2023-04-22T21:16:04.931Z,67.50
2023-04-22T21:18:33.835Z,67.40
2023-04-22T21:21:04.815Z,67.40
2023-04-22T21:23:32.352Z,67.50
2023-04-22T21:26:02.155Z,67.60
2023-04-22T21:28:30.271Z,67.60
2023-04-22T21:30:57.703Z,67.30
2023-04-22T21:33:25.383Z,67.40
2023-04-22T21:35:52.592Z,67.30
2023-04-22T21:38:19.772Z,67.30
2023-04-22T21:40:47.842Z,67.30
2023-04-22T21:43:14.885Z,67.50
2023-04-22T21:45:42.110Z,67.50
2023-04-22T21:48:09.181Z,67.40
2023-04-22T21:50:36.645Z,67.30
2023-04-22T21:53:03.993Z,67.50
2023-04-22T21:55:31.283Z,67.30
2023-04-22T21:57:58.441Z,67.40
2023-04-22T22:00:25.787Z,67.40
2023-04-22T22:02:53.134Z,67.40
2023-04-22T22:05:20.753Z,67.40
2023-04-22T22:07:48.788Z,67.50
2023-04-22T22:10:21.975Z,67.80
2023-04-22T22:12:49.869Z,67.80
2023-04-22T22:15:17.319Z,67.70
2023-04-22T22:17:46.087Z,67.70
2023-04-22T22:20:17.877Z,67.80
2023-04-22T22:22:45.152Z,67.70
2023-04-22T22:25:14.332Z,67.70
2023-04-22T22:27:46.893Z,67.70
2023-04-22T22:30:15.220Z,67.60
2023-04-22T22:32:42.399Z,67.60
2023-04-22T22:35:10.556Z,67.50
2023-04-22T22:37:37.582Z,67.70
2023-04-22T22:40:05.984Z,67.50
2023-04-22T22:42:33.003Z,67.60
2023-04-22T22:45:00.194Z,67.60
2023-04-22T22:47:27.758Z,67.60
2023-04-22T22:49:55.004Z,67.60
2023-04-22T22:52:22.592Z,67.70
2023-04-22T22:54:50.264Z,67.80
2023-04-22T22:57:17.332Z,67.80
2023-04-22T22:59:44.368Z,67.60
2023-04-22T23:02:13.704Z,67.50
2023-04-22T23:04:41.272Z,67.60
2023-04-22T23:07:08.621Z,67.60
2023-04-22T23:09:35.770Z,67.60
2023-04-22T23:12:03.164Z,67.60
2023-04-22T23:14:30.195Z,67.70
2023-04-22T23:16:57.279Z,67.80
2023-04-22T23:19:25.280Z,67.80
2023-04-22T23:21:54.485Z,67.80
2023-04-22T23:24:23.087Z,67.80
2023-04-22T23:26:51.364Z,67.70
2023-04-22T23:29:19.526Z,67.70
2023-04-22T23:31:49.525Z,67.70
2023-04-22T23:34:20.131Z,67.80
2023-04-22T23:36:48.032Z,67.80
2023-04-22T23:39:16.027Z,67.80
2023-04-22T23:41:43.885Z,67.70
2023-04-22T23:44:12.160Z,67.70
2023-04-22T23:46:40.408Z,67.60
2023-04-22T23:49:08.366Z,67.50
2023-04-22T23:51:36.373Z,67.70
2023-04-22T23:54:04.135Z,67.80
2023-04-22T23:56:32.228Z,67.80
2023-04-22T23:59:00.272Z,68.70
